Briefing drone pour Selles-sur-cher

Rechercher une autre localisation

Conditions de vol :


Nous sommes le : Samedi 26 septembre 2020
Il est 23:41 UTC (01:41 LT)

Lever de soleil : 05:20 UTC (07:20 LT)
Coucher de soleil : 18:09 UTC (20:09 LT)

Météo

L'essentiel des conditions de vol

VIGILANCE MÉTÉO FRANCE - Loir-et-Cher (41)
Pas de vigilances particulieres
CARTE TEMSI
CARTES DES FRONTS
METAR de LFYR
LFYR 252330Z AUTO 25006KT 220V290 CAVOK 10/06 Q1013

Date d'émission: 25/09/2020
Heure d'émission: 23:30 UTC
Vent: 250° (variable du 220° au 290°) pour 6 KT (11 km/h)
Visibilité horizontale: > 10 km
Plafond : Plafond et visibilité OK (CAVOK)
Température: 10 °C
Point de rosée: 6 °C
Humidité: 76%
Pression (QNH): 1013 hPa
TAF de LFYR
AMD LFYR 021630Z 0216/0312 CNL

Conditions prévues :

Heure d'émission : Bulletin éffectué le 02 à 16:00 UTC
Prévision : Valide du 02 a 16:00 UTC au 03 a 12:00 UTC
Nuages : à 0ft (0 m)
WEBCAM POUR SELLES-SUR-CHER

Réglementation

Voler en sécurité

CARTES AERONAUTIQUE 1/500.000
CARTES VAC (LFYR)
SUP AIP




Chargement des AIP...
NOTAM (SELLES-SUR-CHER + Terrain à proximité / FIR )




Chargement des NOTAMS...
CONTACT PREFECTURE 41
Loir-et-Cher (41) : pref-bpas@loir-et-cher.gouv.fr


Avertissement : Les données mises à disposition sont indicatives. Oxygène Drone ne pourra être tenu responsable de dégâts causés aux biens et aux personnes.